Felch, Michigan
Current Conditions -  °F | °C
As of 2:54 AM on Sunday 26 Oct 2014 (Local Time) from KIMT Reporting Station
Clear Clear  
Wind Chill: 38°   Ceiling: Unl
Heat Index: 43°   Visibility: 10mi
Dew Point: 28°   Wind: 8mph
Humidity: 56%   Direction: 300°WNW
Pressure: 29.9"   Gusts: NA
Location:  46°N, 87.83°W
Report Text: KIMT 260754Z AUTO 30007KT 10SM CLR 06/M02 A2990 RMK AO2 SLP129 T00611022
Loading
Personal Weather Stations






























Interactive Weather Map
Tropical Storm Tracking
New forecast layout! Learn more

10-Day Weather Forecast

Advertisements
Track Severe Weather on mobile